Canmer, Kentucky
Current Conditions -  °F | °C
As of 1:35 PM on Friday 31 Oct 2014 (Local Time) from KGLW Reporting Station
Light Rain Light Rain  
Wind Chill: 43°   Ceiling: 2800
Heat Index: 48°   Visibility: 10mi
Dew Point: 41°   Wind: 12mph
Humidity: 76%   Direction: 300°WNW
Pressure: 29.97"   Gusts: NA
Location:  37.29°N, 85.77°W
Report Text: KGLW 311835Z AUTO 30010KT 10SM -RA SCT022 BKN028 OVC036 09/05 A2997 RMK AO2 T00900050
Loading
Personal Weather Stations






























Interactive Weather Map
Tropical Storm Tracking
New forecast layout! Learn more

10-Day Weather Forecast

Advertisements
Track Severe Weather on mobile